createdAt,value
2019-05-19T00:02:26.724Z,19.30
2019-05-19T00:04:53.748Z,19.30
2019-05-19T00:07:20.810Z,19.30
2019-05-19T00:09:47.648Z,19.30
2019-05-19T00:12:14.594Z,19.20
2019-05-19T00:14:41.275Z,19.30
2019-05-19T00:17:09.037Z,19.20
2019-05-19T00:19:37.898Z,19.20
2019-05-19T00:22:04.505Z,19.20
2019-05-19T00:24:31.275Z,19.20
2019-05-19T00:26:59.343Z,19.20
2019-05-19T00:29:27.981Z,19.10
2019-05-19T00:31:54.752Z,19.10
2019-05-19T00:34:21.820Z,19.00
2019-05-19T00:36:48.551Z,19.10
2019-05-19T00:39:17.558Z,19.10
2019-05-19T00:41:44.388Z,19.20
2019-05-19T00:44:11.208Z,19.00
2019-05-19T00:46:38.206Z,19.00
2019-05-19T00:49:04.982Z,19.00
2019-05-19T00:51:32.221Z,19.00
2019-05-19T00:53:59.118Z,19.00
2019-05-19T00:56:26.257Z,19.00
2019-05-19T00:58:54.068Z,19.00
2019-05-19T01:01:20.772Z,19.00
2019-05-19T01:03:47.699Z,19.00
2019-05-19T01:06:16.278Z,18.90
2019-05-19T01:08:43.215Z,19.00
2019-05-19T01:11:10.291Z,18.90
2019-05-19T01:13:37.325Z,18.90
2019-05-19T01:16:04.249Z,18.90
2019-05-19T01:18:30.823Z,18.90
2019-05-19T01:20:57.728Z,18.90
2019-05-19T01:23:24.746Z,18.80
2019-05-19T01:25:51.469Z,18.90
2019-05-19T01:28:18.076Z,18.80
2019-05-19T01:30:45.386Z,18.90
2019-05-19T01:33:12.115Z,18.80
2019-05-19T01:35:38.711Z,18.90
2019-05-19T01:38:05.618Z,18.80
2019-05-19T01:40:32.569Z,18.90
2019-05-19T01:42:59.413Z,18.80
2019-05-19T01:45:27.323Z,18.80
2019-05-19T01:47:53.838Z,18.80
2019-05-19T01:50:20.637Z,18.80
2019-05-19T01:52:47.503Z,18.80
2019-05-19T01:55:14.499Z,18.80
2019-05-19T01:57:41.303Z,18.70
2019-05-19T02:00:09.121Z,18.70
2019-05-19T02:02:36.110Z,18.70
2019-05-19T02:05:05.329Z,18.60
2019-05-19T02:07:32.159Z,18.60
2019-05-19T02:09:59.429Z,18.60
2019-05-19T02:12:26.325Z,18.60
2019-05-19T02:14:53.747Z,18.60
2019-05-19T02:17:20.747Z,18.50
2019-05-19T02:19:48.327Z,18.50
2019-05-19T02:22:15.135Z,18.50
2019-05-19T02:24:42.292Z,18.50
2019-05-19T02:27:09.442Z,18.50
2019-05-19T02:29:36.154Z,18.50
2019-05-19T02:32:03.504Z,18.50
2019-05-19T02:34:30.417Z,18.50
2019-05-19T02:36:57.273Z,18.50
2019-05-19T02:39:24.840Z,18.50
2019-05-19T02:41:52.504Z,18.40
2019-05-19T02:44:21.173Z,18.40
2019-05-19T02:46:50.319Z,18.40
2019-05-19T02:49:18.023Z,18.30
2019-05-19T02:51:47.636Z,18.30
2019-05-19T02:54:14.653Z,18.30
2019-05-19T02:56:44.559Z,18.20
2019-05-19T02:59:12.801Z,18.30
2019-05-19T03:01:58.413Z,18.30
2019-05-19T03:04:25.516Z,18.20
2019-05-19T03:06:52.865Z,18.10
2019-05-19T03:09:20.003Z,18.00
2019-05-19T03:11:47.290Z,18.00
2019-05-19T03:14:14.606Z,18.00
2019-05-19T03:16:41.812Z,17.90
2019-05-19T03:19:08.890Z,17.90
2019-05-19T03:21:36.022Z,18.00
2019-05-19T03:24:03.491Z,18.00
2019-05-19T03:26:31.675Z,18.00
2019-05-19T03:29:00.415Z,18.00
2019-05-19T03:31:29.901Z,17.90
2019-05-19T03:34:01.532Z,17.90
2019-05-19T03:36:28.820Z,17.70
2019-05-19T03:38:56.520Z,17.80
2019-05-19T03:41:23.332Z,17.90
2019-05-19T03:43:49.943Z,18.00
2019-05-19T03:46:16.769Z,18.00
2019-05-19T03:48:43.674Z,18.00
2019-05-19T03:51:27.510Z,18.10
2019-05-19T03:53:39.686Z,18.10
2019-05-19T03:56:12.528Z,18.10
2019-05-19T03:58:41.764Z,18.10
2019-05-19T04:01:08.660Z,18.10
2019-05-19T04:03:35.537Z,18.10
2019-05-19T04:06:02.838Z,18.20
2019-05-19T04:08:29.610Z,18.10
2019-05-19T04:10:56.322Z,18.20
2019-05-19T04:13:23.600Z,18.10
2019-05-19T04:15:50.167Z,18.10
2019-05-19T04:18:16.787Z,18.10
2019-05-19T04:20:43.664Z,18.10
2019-05-19T04:23:12.500Z,18.10
2019-05-19T04:25:39.884Z,18.10
2019-05-19T04:28:06.857Z,18.00
2019-05-19T04:30:35.417Z,18.00
2019-05-19T04:33:02.411Z,18.00
2019-05-19T04:35:29.110Z,18.00
2019-05-19T04:37:56.399Z,18.00
2019-05-19T04:40:23.220Z,18.00
2019-05-19T04:42:53.663Z,18.00
2019-05-19T04:45:20.677Z,18.00
2019-05-19T04:47:47.818Z,18.00
2019-05-19T04:50:14.960Z,18.00
2019-05-19T04:52:43.094Z,18.00
2019-05-19T04:55:10.519Z,18.00
2019-05-19T04:57:37.518Z,18.10
2019-05-19T05:00:07.754Z,18.00
2019-05-19T05:02:34.741Z,18.00
2019-05-19T05:05:02.005Z,18.00
2019-05-19T05:07:28.717Z,18.00
2019-05-19T05:09:55.396Z,18.00
2019-05-19T05:12:22.325Z,18.00
2019-05-19T05:14:49.250Z,18.00
2019-05-19T05:17:17.252Z,18.00
2019-05-19T05:19:44.298Z,18.10
2019-05-19T05:22:21.652Z,17.90
2019-05-19T05:24:39.319Z,18.00
2019-05-19T05:27:09.169Z,18.00
2019-05-19T05:29:35.980Z,17.80
2019-05-19T05:32:08.548Z,17.80
2019-05-19T05:34:35.350Z,17.90
2019-05-19T05:37:02.309Z,17.90
2019-05-19T05:39:28.904Z,18.00
2019-05-19T05:41:55.546Z,18.00
2019-05-19T05:44:22.403Z,18.00
2019-05-19T05:46:48.945Z,18.00
2019-05-19T05:49:15.693Z,18.00
2019-05-19T05:51:42.470Z,18.00
2019-05-19T05:54:18.223Z,17.90
2019-05-19T05:56:45.331Z,17.80
2019-05-19T05:59:12.011Z,17.90
2019-05-19T06:01:38.580Z,18.00
2019-05-19T06:04:05.392Z,18.00
2019-05-19T06:06:32.313Z,18.00
2019-05-19T06:09:00.984Z,18.10
2019-05-19T06:11:28.181Z,18.00
2019-05-19T06:13:55.162Z,18.00
2019-05-19T06:16:24.988Z,17.90
2019-05-19T06:18:52.994Z,17.80
2019-05-19T06:21:20.170Z,17.90
2019-05-19T06:23:48.023Z,18.00
2019-05-19T06:26:17.746Z,18.00
2019-05-19T06:28:48.064Z,18.10
2019-05-19T06:31:18.402Z,18.10
2019-05-19T06:33:45.205Z,18.20
2019-05-19T06:36:12.013Z,18.20
2019-05-19T06:38:38.904Z,18.10
2019-05-19T06:41:06.583Z,18.10
2019-05-19T06:43:35.199Z,18.10
2019-05-19T06:46:01.916Z,18.10
2019-05-19T06:48:28.700Z,18.20
2019-05-19T06:50:55.377Z,18.30
2019-05-19T06:53:22.066Z,18.30
2019-05-19T06:55:49.022Z,18.30
2019-05-19T06:58:15.657Z,18.40
2019-05-19T07:00:42.523Z,18.30
2019-05-19T07:03:09.403Z,18.30
2019-05-19T07:05:36.085Z,18.30
2019-05-19T07:08:02.834Z,18.20
2019-05-19T07:10:29.529Z,18.30
2019-05-19T07:12:56.289Z,18.20
2019-05-19T07:15:22.966Z,18.30
2019-05-19T07:17:49.673Z,18.30
2019-05-19T07:20:16.349Z,18.50
2019-05-19T07:22:43.074Z,18.60
2019-05-19T07:25:10.029Z,18.60
2019-05-19T07:27:36.752Z,18.70
2019-05-19T07:30:06.603Z,18.70
2019-05-19T07:32:33.236Z,18.80
2019-05-19T07:34:59.917Z,18.80
2019-05-19T07:37:26.368Z,18.80
2019-05-19T07:39:52.808Z,18.90
2019-05-19T07:42:19.484Z,19.00
2019-05-19T07:44:46.226Z,19.00
2019-05-19T07:47:12.790Z,18.90
2019-05-19T07:49:39.560Z,18.90
2019-05-19T07:52:06.510Z,19.00
2019-05-19T07:54:33.342Z,19.00
2019-05-19T07:57:00.102Z,19.00
2019-05-19T07:59:26.543Z,19.20
2019-05-19T08:01:53.124Z,19.30
2019-05-19T08:04:19.612Z,19.30
2019-05-19T08:06:46.067Z,19.30
2019-05-19T08:09:12.730Z,19.40
2019-05-19T08:11:39.476Z,19.50
2019-05-19T08:14:06.078Z,19.60
2019-05-19T08:16:33.804Z,19.60
2019-05-19T08:19:02.590Z,19.60
2019-05-19T08:21:30.179Z,19.70
2019-05-19T08:24:00.721Z,19.80
2019-05-19T08:26:27.979Z,19.90
2019-05-19T08:28:54.579Z,19.90
2019-05-19T08:31:22.997Z,20.10
2019-05-19T08:33:49.604Z,20.00
2019-05-19T08:36:16.132Z,20.10
2019-05-19T08:38:42.731Z,20.10
2019-05-19T08:41:09.265Z,20.10
2019-05-19T08:43:35.945Z,19.90
2019-05-19T08:46:02.682Z,19.80
2019-05-19T08:48:29.267Z,20.00
2019-05-19T08:50:55.721Z,20.40
2019-05-19T08:53:22.105Z,20.60
2019-05-19T08:55:48.458Z,20.80
2019-05-19T08:58:15.114Z,20.70
2019-05-19T09:00:41.834Z,20.50
2019-05-19T09:03:08.544Z,20.50
2019-05-19T09:05:35.044Z,20.60
2019-05-19T09:08:01.668Z,20.80
2019-05-19T09:10:28.160Z,21.10
2019-05-19T09:12:54.723Z,21.50
2019-05-19T09:15:21.122Z,21.60
2019-05-19T09:17:48.601Z,21.40
2019-05-19T09:20:15.334Z,21.00
2019-05-19T09:22:41.677Z,20.60
2019-05-19T09:25:10.432Z,20.40
2019-05-19T09:27:37.078Z,20.40
2019-05-19T09:30:08.677Z,20.30
2019-05-19T09:32:35.117Z,20.20
2019-05-19T09:35:01.692Z,20.20
2019-05-19T09:37:28.412Z,20.20
2019-05-19T09:39:55.136Z,20.20
2019-05-19T09:42:21.522Z,20.30
2019-05-19T09:44:51.073Z,20.10
2019-05-19T09:47:17.902Z,19.90
2019-05-19T09:49:44.457Z,19.70
2019-05-19T09:52:11.141Z,19.80
2019-05-19T09:54:45.178Z,19.90
2019-05-19T09:57:06.184Z,20.10
2019-05-19T09:59:32.915Z,20.50
2019-05-19T10:01:59.470Z,20.90
2019-05-19T10:04:25.983Z,21.20
2019-05-19T10:06:52.442Z,21.30
2019-05-19T10:09:55.280Z,21.40
2019-05-19T10:12:21.577Z,21.40
2019-05-19T10:14:48.002Z,21.50
2019-05-19T10:17:14.434Z,21.50
2019-05-19T10:19:41.435Z,21.70
2019-05-19T10:22:07.730Z,21.80
2019-05-19T10:24:34.331Z,21.90
2019-05-19T10:27:01.324Z,21.90
2019-05-19T10:29:28.599Z,22.00
2019-05-19T10:31:55.085Z,21.90
2019-05-19T10:34:21.699Z,22.10
2019-05-19T10:36:48.120Z,22.30
2019-05-19T10:39:14.580Z,22.70
2019-05-19T10:41:41.176Z,22.80
2019-05-19T10:44:07.741Z,22.90
2019-05-19T10:46:34.359Z,23.00
2019-05-19T10:49:00.831Z,22.80
2019-05-19T10:51:27.413Z,22.70
2019-05-19T10:53:54.006Z,22.40
2019-05-19T10:56:20.648Z,22.50
2019-05-19T10:58:47.203Z,22.60
2019-05-19T11:01:13.742Z,22.80
2019-05-19T11:03:40.270Z,23.10
2019-05-19T11:06:06.835Z,23.40
2019-05-19T11:08:33.253Z,23.60
2019-05-19T11:10:59.789Z,23.70
2019-05-19T11:13:26.362Z,23.80
2019-05-19T11:15:52.771Z,24.00
2019-05-19T11:18:19.345Z,24.00
2019-05-19T11:20:45.842Z,23.90
2019-05-19T11:23:12.316Z,24.00
2019-05-19T11:25:50.672Z,23.70
2019-05-19T11:28:09.325Z,23.60
2019-05-19T11:30:35.875Z,23.50
2019-05-19T11:33:02.705Z,23.60
2019-05-19T11:35:29.156Z,23.60
2019-05-19T11:37:55.614Z,23.50
2019-05-19T11:40:21.998Z,23.40
2019-05-19T11:42:48.557Z,23.40
2019-05-19T11:45:15.459Z,23.30
2019-05-19T11:47:41.899Z,23.30
2019-05-19T11:50:09.064Z,23.30
2019-05-19T11:52:35.434Z,23.20
2019-05-19T11:55:03.464Z,23.20
2019-05-19T11:57:30.023Z,23.30
2019-05-19T11:59:56.460Z,23.20
2019-05-19T12:02:24.247Z,23.10
2019-05-19T12:04:50.651Z,22.90
2019-05-19T12:07:17.109Z,22.90
2019-05-19T12:09:43.410Z,22.70
2019-05-19T12:12:09.817Z,22.80
2019-05-19T12:14:36.286Z,22.70
2019-05-19T12:17:02.991Z,22.90
2019-05-19T12:19:29.481Z,23.20
2019-05-19T12:21:57.857Z,23.10
2019-05-19T12:24:24.555Z,23.30
2019-05-19T12:26:51.122Z,23.40
2019-05-19T12:29:17.588Z,23.50
2019-05-19T12:31:44.044Z,23.60
2019-05-19T12:34:10.347Z,23.40
2019-05-19T12:36:36.682Z,23.50
2019-05-19T12:39:05.030Z,23.60
2019-05-19T12:41:32.253Z,23.80
2019-05-19T12:43:58.721Z,23.70
2019-05-19T12:46:25.122Z,23.70
2019-05-19T12:48:51.674Z,23.70
2019-05-19T12:51:18.093Z,23.70
2019-05-19T12:53:44.564Z,23.60
2019-05-19T12:56:11.017Z,23.30
2019-05-19T12:58:37.449Z,23.50
2019-05-19T13:01:03.734Z,23.50
2019-05-19T13:03:30.150Z,23.50
2019-05-19T13:05:56.446Z,23.50
2019-05-19T13:08:22.815Z,23.30
2019-05-19T13:10:49.260Z,23.40
2019-05-19T13:13:15.546Z,23.30
2019-05-19T13:15:41.872Z,23.30
2019-05-19T13:18:10.190Z,23.20
2019-05-19T13:20:37.129Z,23.20
2019-05-19T13:23:03.718Z,23.20
2019-05-19T13:25:30.108Z,23.10
2019-05-19T13:27:58.678Z,22.80
2019-05-19T13:30:25.195Z,22.60
2019-05-19T13:32:51.613Z,22.70
2019-05-19T13:35:18.165Z,22.60
2019-05-19T13:37:44.769Z,22.50
2019-05-19T13:40:11.691Z,22.40
2019-05-19T13:42:38.231Z,22.40
2019-05-19T13:45:07.507Z,22.40
2019-05-19T13:47:34.282Z,22.50
2019-05-19T13:50:00.794Z,22.50
2019-05-19T13:52:27.375Z,22.30
2019-05-19T13:54:53.943Z,22.30
2019-05-19T13:57:20.285Z,22.20
2019-05-19T13:59:46.642Z,22.20
2019-05-19T14:02:13.046Z,22.20
2019-05-19T14:04:39.497Z,22.30
2019-05-19T14:07:06.628Z,22.30
2019-05-19T14:09:33.366Z,22.30
2019-05-19T14:11:59.912Z,22.00
2019-05-19T14:14:26.221Z,21.90
2019-05-19T14:16:52.822Z,22.00
2019-05-19T14:19:19.379Z,22.10
2019-05-19T14:21:45.850Z,22.20
2019-05-19T14:24:12.330Z,22.20
2019-05-19T14:26:39.791Z,22.20
2019-05-19T14:29:06.408Z,22.20
2019-05-19T14:31:33.201Z,21.90
2019-05-19T14:33:59.952Z,22.10
2019-05-19T14:36:26.550Z,22.10
2019-05-19T14:39:05.028Z,22.10
2019-05-19T14:41:34.491Z,21.60
2019-05-19T14:44:01.497Z,21.50
2019-05-19T14:46:30.094Z,21.50
2019-05-19T14:48:56.624Z,21.60
2019-05-19T14:51:23.113Z,21.70
2019-05-19T14:53:49.800Z,21.60
2019-05-19T14:56:18.434Z,21.60
2019-05-19T14:58:45.040Z,21.60
2019-05-19T15:01:11.629Z,21.70
2019-05-19T15:03:38.216Z,21.60
2019-05-19T15:06:04.736Z,21.80
2019-05-19T15:08:31.635Z,21.80
2019-05-19T15:10:58.507Z,21.80
2019-05-19T15:13:25.172Z,21.90
2019-05-19T15:15:51.675Z,21.80
2019-05-19T15:18:18.340Z,21.90
2019-05-19T15:20:44.766Z,21.60
2019-05-19T15:23:11.360Z,21.70
2019-05-19T15:25:37.882Z,21.80
2019-05-19T15:28:05.534Z,22.00
2019-05-19T15:30:33.552Z,21.80
2019-05-19T15:32:59.941Z,21.40
2019-05-19T15:35:26.399Z,21.10
2019-05-19T15:37:52.734Z,21.30
2019-05-19T15:40:19.301Z,21.30
2019-05-19T15:42:46.304Z,21.30
2019-05-19T15:45:13.585Z,21.40
2019-05-19T15:47:40.292Z,21.50
2019-05-19T15:50:07.206Z,21.50
2019-05-19T15:52:34.889Z,21.40
2019-05-19T15:55:01.818Z,21.30
2019-05-19T15:57:28.798Z,21.30
2019-05-19T15:59:55.662Z,21.50
2019-05-19T16:02:23.265Z,21.20
2019-05-19T16:04:49.883Z,21.40
2019-05-19T16:07:17.072Z,21.00
2019-05-19T16:09:48.333Z,21.10
2019-05-19T16:12:14.998Z,21.00
2019-05-19T16:14:43.882Z,21.10
2019-05-19T16:17:10.556Z,20.90
2019-05-19T16:19:37.059Z,20.90
2019-05-19T16:22:03.594Z,21.00
2019-05-19T16:24:30.409Z,20.90
2019-05-19T16:27:01.629Z,21.00
2019-05-19T16:29:29.502Z,21.20
2019-05-19T16:31:56.517Z,21.10
2019-05-19T16:34:25.259Z,21.00
2019-05-19T16:36:53.319Z,20.90
2019-05-19T16:39:22.291Z,20.80
2019-05-19T16:41:52.888Z,20.80
2019-05-19T16:44:19.936Z,20.70
2019-05-19T16:46:46.722Z,20.80
2019-05-19T16:49:13.635Z,20.80
2019-05-19T16:51:41.056Z,21.00
2019-05-19T16:54:12.417Z,20.70
2019-05-19T16:56:39.214Z,20.70
2019-05-19T16:59:06.088Z,20.70
2019-05-19T17:01:33.626Z,20.70
2019-05-19T17:04:00.933Z,20.60
2019-05-19T17:06:28.070Z,20.70
2019-05-19T17:08:54.778Z,20.70
2019-05-19T17:11:23.606Z,20.80
2019-05-19T17:13:50.452Z,20.60
2019-05-19T17:16:17.359Z,20.70
2019-05-19T17:18:44.223Z,20.50
2019-05-19T17:21:11.115Z,20.50
2019-05-19T17:23:39.502Z,20.60
2019-05-19T17:26:08.396Z,20.70
2019-05-19T17:28:42.147Z,20.80
2019-05-19T17:31:09.672Z,20.60
2019-05-19T17:33:38.165Z,20.30
2019-05-19T17:36:06.551Z,20.30
2019-05-19T17:38:34.389Z,20.20
2019-05-19T17:41:03.290Z,20.10
2019-05-19T17:43:31.086Z,20.20
2019-05-19T17:46:02.634Z,20.20
2019-05-19T17:48:31.671Z,20.20
2019-05-19T17:51:00.532Z,20.00
2019-05-19T17:53:26.975Z,19.90
2019-05-19T17:55:53.829Z,19.90
2019-05-19T17:58:23.209Z,19.80
2019-05-19T18:00:49.870Z,19.70
2019-05-19T18:03:16.920Z,19.80
2019-05-19T18:05:43.741Z,19.80
2019-05-19T18:08:10.630Z,19.60
2019-05-19T18:10:37.290Z,19.70
2019-05-19T18:13:03.910Z,19.70
2019-05-19T18:15:30.786Z,19.70
2019-05-19T18:17:59.302Z,19.60
2019-05-19T18:20:25.724Z,19.70
2019-05-19T18:22:52.195Z,19.80
2019-05-19T18:25:18.706Z,19.80
2019-05-19T18:27:45.429Z,19.80
2019-05-19T18:30:12.330Z,19.80
2019-05-19T18:32:39.106Z,19.90
2019-05-19T18:35:06.137Z,19.80
2019-05-19T18:37:33.806Z,19.70
2019-05-19T18:40:00.403Z,19.80
2019-05-19T18:42:28.905Z,19.80
2019-05-19T18:44:55.421Z,19.60
2019-05-19T18:47:22.167Z,19.60
2019-05-19T18:49:48.848Z,19.50
2019-05-19T18:52:15.654Z,19.60
2019-05-19T18:54:42.267Z,19.50
2019-05-19T18:57:10.567Z,19.30
2019-05-19T18:59:46.801Z,19.30
2019-05-19T19:02:06.007Z,19.20
2019-05-19T19:04:32.795Z,19.30
2019-05-19T19:06:59.353Z,19.30
2019-05-19T19:09:27.325Z,19.30
2019-05-19T19:11:55.782Z,19.30
2019-05-19T19:14:22.399Z,19.30
2019-05-19T19:16:49.010Z,19.40
2019-05-19T19:19:15.611Z,19.50
2019-05-19T19:21:42.040Z,19.40
2019-05-19T19:24:08.686Z,19.30
2019-05-19T19:26:35.624Z,19.00
2019-05-19T19:29:02.293Z,18.90
2019-05-19T19:31:28.944Z,19.00
2019-05-19T19:33:56.946Z,19.00
2019-05-19T19:36:23.822Z,19.10
2019-05-19T19:38:50.997Z,19.00
2019-05-19T19:41:17.618Z,18.90
2019-05-19T19:43:44.605Z,18.90
2019-05-19T19:46:11.941Z,18.90
2019-05-19T19:48:38.546Z,18.80
2019-05-19T19:51:05.246Z,18.80
2019-05-19T19:53:32.456Z,18.70
2019-05-19T19:55:59.247Z,18.60
2019-05-19T19:58:25.808Z,18.70
2019-05-19T20:00:52.442Z,18.70
2019-05-19T20:03:18.962Z,18.80
2019-05-19T20:05:47.517Z,18.80
2019-05-19T20:08:15.230Z,18.80
2019-05-19T20:10:41.937Z,18.80
2019-05-19T20:13:09.182Z,18.70
2019-05-19T20:15:37.285Z,18.80
2019-05-19T20:18:04.219Z,18.60
2019-05-19T20:20:30.911Z,18.70
2019-05-19T20:22:59.420Z,18.60
2019-05-19T20:25:26.097Z,18.50
2019-05-19T20:27:52.837Z,18.40
2019-05-19T20:30:34.576Z,18.20
2019-05-19T20:32:48.070Z,18.30
2019-05-19T20:35:14.988Z,18.30
2019-05-19T20:37:41.956Z,18.20
2019-05-19T20:40:09.949Z,18.40
2019-05-19T20:42:36.420Z,18.40
2019-05-19T20:45:03.638Z,18.50
2019-05-19T20:47:30.765Z,18.50
2019-05-19T20:49:57.491Z,18.40
2019-05-19T20:52:24.433Z,18.30
2019-05-19T20:54:53.626Z,18.20
2019-05-19T20:57:20.596Z,18.00
2019-05-19T20:59:47.223Z,18.00
2019-05-19T21:02:13.788Z,18.00
2019-05-19T21:04:40.333Z,18.10
2019-05-19T21:07:07.886Z,17.90
2019-05-19T21:09:34.498Z,17.90
2019-05-19T21:12:00.941Z,18.00
2019-05-19T21:14:27.722Z,17.90
2019-05-19T21:16:54.644Z,17.70
2019-05-19T21:19:21.625Z,17.80
2019-05-19T21:21:48.542Z,17.80
2019-05-19T21:24:16.059Z,17.70
2019-05-19T21:26:43.029Z,17.90
2019-05-19T21:29:09.642Z,17.90
2019-05-19T21:31:36.688Z,18.00
2019-05-19T21:34:03.641Z,18.10
2019-05-19T21:36:30.798Z,18.10
2019-05-19T21:38:57.576Z,17.90
2019-05-19T21:41:24.534Z,17.70
2019-05-19T21:43:51.442Z,17.50
2019-05-19T21:46:18.468Z,17.40
2019-05-19T21:48:45.192Z,17.20
2019-05-19T21:51:11.876Z,17.30
2019-05-19T21:53:38.583Z,17.10
2019-05-19T21:56:05.504Z,17.20
2019-05-19T21:58:32.488Z,17.20
2019-05-19T22:00:59.292Z,17.20
2019-05-19T22:03:26.502Z,17.30
2019-05-19T22:05:53.831Z,17.30
2019-05-19T22:08:21.807Z,17.20
2019-05-19T22:10:48.648Z,17.40
2019-05-19T22:13:15.592Z,17.10
2019-05-19T22:15:42.359Z,17.20
2019-05-19T22:18:09.051Z,17.20
2019-05-19T22:20:35.820Z,17.40
2019-05-19T22:23:02.722Z,17.50
2019-05-19T22:25:29.725Z,17.50
2019-05-19T22:27:56.540Z,17.40
2019-05-19T22:30:23.807Z,17.30
2019-05-19T22:32:50.563Z,17.40
2019-05-19T22:35:17.885Z,17.40
2019-05-19T22:37:45.127Z,17.30
2019-05-19T22:40:12.502Z,17.20
2019-05-19T22:42:39.344Z,17.10
2019-05-19T22:45:08.463Z,17.00
2019-05-19T22:47:35.651Z,17.10
2019-05-19T22:50:04.833Z,17.20
2019-05-19T22:52:33.741Z,17.20
2019-05-19T22:55:00.804Z,17.20
2019-05-19T22:57:27.507Z,17.20
2019-05-19T22:59:54.432Z,17.40
2019-05-19T23:02:21.440Z,17.30
2019-05-19T23:04:48.281Z,17.40
2019-05-19T23:07:17.221Z,17.20
2019-05-19T23:09:45.144Z,17.10
2019-05-19T23:12:11.786Z,17.00
2019-05-19T23:14:38.599Z,16.90
2019-05-19T23:17:06.818Z,16.70
2019-05-19T23:19:33.839Z,16.70
2019-05-19T23:22:00.556Z,16.70
2019-05-19T23:24:27.182Z,16.60
2019-05-19T23:26:53.894Z,16.70
2019-05-19T23:29:20.850Z,16.60
2019-05-19T23:31:47.849Z,16.60
2019-05-19T23:34:14.435Z,16.70
2019-05-19T23:36:41.105Z,16.70
2019-05-19T23:39:07.794Z,16.70
2019-05-19T23:41:34.488Z,16.80
2019-05-19T23:44:01.381Z,16.80
2019-05-19T23:46:28.981Z,16.90
2019-05-19T23:48:55.893Z,16.50
2019-05-19T23:51:25.437Z,16.70
2019-05-19T23:53:52.105Z,16.70
2019-05-19T23:56:18.994Z,16.70
2019-05-19T23:58:46.272Z,16.90
